createdAt,value
2022-08-28T00:02:08.987Z,2.20
2022-08-28T00:04:36.996Z,1.92
2022-08-28T00:07:06.340Z,2.13
2022-08-28T00:09:34.199Z,2.38
2022-08-28T00:12:03.284Z,2.22
2022-08-28T00:14:31.265Z,3.00
2022-08-28T00:16:59.178Z,2.50
2022-08-28T00:19:27.421Z,1.73
2022-08-28T00:21:55.275Z,2.25
2022-08-28T00:24:24.528Z,2.35
2022-08-28T00:27:10.245Z,1.98
2022-08-28T00:29:38.773Z,2.17
2022-08-28T00:32:08.870Z,2.30
2022-08-28T00:34:37.105Z,2.28
2022-08-28T00:37:05.005Z,2.13
2022-08-28T00:39:34.537Z,1.83
2022-08-28T00:42:02.362Z,3.17
2022-08-28T00:44:30.903Z,1.85
2022-08-28T00:47:00.183Z,2.17
2022-08-28T00:49:31.373Z,1.85
2022-08-28T00:52:11.890Z,2.45
2022-08-28T00:54:47.839Z,2.38
2022-08-28T00:57:29.932Z,2.35
2022-08-28T00:59:57.811Z,2.38
2022-08-28T01:02:26.623Z,2.20
2022-08-28T01:04:55.885Z,2.00
2022-08-28T01:07:24.156Z,2.25
2022-08-28T01:09:55.753Z,2.20
2022-08-28T01:12:29.434Z,2.08
2022-08-28T01:15:00.962Z,2.15
2022-08-28T01:17:31.572Z,2.83
2022-08-28T01:20:03.796Z,2.22
2022-08-28T01:22:38.327Z,2.40
2022-08-28T01:25:11.361Z,2.00
2022-08-28T01:27:42.140Z,2.25
2022-08-28T01:30:12.920Z,1.92
2022-08-28T01:32:43.672Z,2.53
2022-08-28T01:35:17.020Z,2.63
2022-08-28T01:37:46.002Z,2.17
2022-08-28T01:40:27.105Z,1.98
2022-08-28T01:42:55.872Z,1.83
2022-08-28T01:45:26.236Z,2.15
2022-08-28T01:47:56.988Z,1.75
2022-08-28T01:50:24.902Z,1.50
2022-08-28T01:52:53.063Z,1.98
2022-08-28T01:55:22.630Z,2.45
2022-08-28T01:57:54.072Z,2.25
2022-08-28T02:00:28.965Z,2.58
2022-08-28T02:02:59.106Z,2.28
2022-08-28T02:05:31.327Z,2.78
2022-08-28T02:08:00.037Z,2.65
2022-08-28T02:10:31.609Z,2.40
2022-08-28T02:12:59.587Z,1.98
2022-08-28T02:15:28.461Z,2.55
2022-08-28T02:17:57.251Z,2.35
2022-08-28T02:20:25.725Z,2.00
2022-08-28T02:22:54.136Z,2.00
2022-08-28T02:25:22.279Z,2.05
2022-08-28T02:27:51.529Z,2.03
2022-08-28T02:30:21.959Z,2.00
2022-08-28T02:32:51.093Z,2.58
2022-08-28T02:35:21.448Z,2.65
2022-08-28T02:37:49.985Z,2.10
2022-08-28T02:40:20.323Z,2.75
2022-08-28T02:42:48.680Z,2.50
2022-08-28T02:45:19.066Z,2.55
2022-08-28T02:47:48.340Z,3.03
2022-08-28T02:50:19.481Z,2.70
2022-08-28T02:52:47.590Z,3.40
2022-08-28T02:55:18.834Z,3.00
2022-08-28T02:57:47.489Z,3.22
2022-08-28T03:00:20.051Z,3.45
2022-08-28T03:02:48.880Z,2.80
2022-08-28T03:05:20.467Z,2.38
2022-08-28T03:07:48.345Z,3.10
2022-08-28T03:10:16.311Z,2.53
2022-08-28T03:12:44.412Z,3.47
2022-08-28T03:15:13.256Z,3.50
2022-08-28T03:17:42.410Z,3.47
2022-08-28T03:20:12.851Z,2.60
2022-08-28T03:22:58.608Z,2.90
2022-08-28T03:27:54.448Z,4.05
2022-08-28T03:30:23.896Z,3.28
2022-08-28T03:32:53.959Z,3.88
2022-08-28T03:35:22.168Z,3.42
2022-08-28T03:37:50.046Z,3.10
2022-08-28T03:40:18.509Z,3.72
2022-08-28T03:42:52.997Z,3.42
2022-08-28T03:45:21.709Z,4.15
2022-08-28T03:47:50.949Z,4.32
2022-08-28T03:50:21.159Z,3.75
2022-08-28T03:52:49.022Z,3.47
2022-08-28T03:55:19.052Z,4.25
2022-08-28T03:57:46.917Z,3.78
2022-08-28T04:00:16.406Z,4.10
2022-08-28T04:02:46.428Z,4.05
2022-08-28T04:05:17.600Z,4.10
2022-08-28T04:07:47.224Z,4.15
2022-08-28T04:10:15.027Z,4.07
2022-08-28T04:12:43.673Z,4.47
2022-08-28T04:15:12.967Z,4.65
2022-08-28T04:17:41.613Z,4.35
2022-08-28T04:20:11.059Z,5.10
2022-08-28T04:22:39.921Z,4.68
2022-08-28T04:25:09.729Z,4.68
2022-08-28T04:27:37.574Z,4.55
2022-08-28T04:30:06.937Z,4.75
2022-08-28T04:32:39.265Z,4.03
2022-08-28T04:35:10.839Z,5.18
2022-08-28T04:37:39.529Z,4.22
2022-08-28T04:40:11.138Z,4.95
2022-08-28T04:42:40.337Z,4.90
2022-08-28T04:45:08.970Z,5.07
2022-08-28T04:47:38.458Z,4.82
2022-08-28T04:50:08.462Z,5.07
2022-08-28T04:52:36.380Z,4.90
2022-08-28T04:55:05.624Z,5.32
2022-08-28T04:57:36.560Z,4.72
2022-08-28T05:00:07.345Z,5.55
2022-08-28T05:02:35.842Z,4.47
2022-08-28T05:05:04.341Z,4.60
2022-08-28T05:07:33.007Z,4.90
2022-08-28T05:10:01.335Z,4.45
2022-08-28T05:12:29.153Z,4.15
2022-08-28T05:14:58.357Z,4.43
2022-08-28T05:17:26.857Z,5.03
2022-08-28T05:20:00.081Z,5.28
2022-08-28T05:22:29.155Z,4.22
2022-08-28T05:24:56.953Z,4.63
2022-08-28T05:27:25.677Z,5.82
2022-08-28T05:29:57.255Z,4.93
2022-08-28T05:32:28.886Z,4.28
2022-08-28T05:34:56.890Z,4.47
2022-08-28T05:37:24.694Z,5.07
2022-08-28T05:39:52.564Z,4.78
2022-08-28T05:42:20.824Z,4.10
2022-08-28T05:44:49.724Z,4.05
2022-08-28T05:47:22.883Z,4.45
2022-08-28T05:49:52.312Z,4.03
2022-08-28T05:52:20.727Z,3.88
2022-08-28T05:54:48.876Z,4.05
2022-08-28T05:57:16.756Z,3.95
2022-08-28T05:59:44.871Z,4.90
2022-08-28T06:02:13.181Z,4.22
2022-08-28T06:04:41.104Z,4.22
2022-08-28T06:07:12.400Z,4.50
2022-08-28T06:09:40.399Z,4.43
2022-08-28T06:12:09.311Z,3.95
2022-08-28T06:14:39.772Z,4.70
2022-08-28T06:17:07.591Z,4.15
2022-08-28T06:19:41.360Z,3.95
2022-08-28T06:22:12.642Z,4.43
2022-08-28T06:24:40.613Z,4.80
2022-08-28T06:27:08.797Z,3.70
2022-08-28T06:29:36.617Z,4.13
2022-08-28T06:32:05.602Z,4.00
2022-08-28T06:34:34.110Z,4.43
2022-08-28T06:37:02.026Z,4.18
2022-08-28T06:39:31.207Z,4.00
2022-08-28T06:41:59.024Z,3.55
2022-08-28T06:44:27.503Z,3.65
2022-08-28T06:46:55.926Z,2.97
2022-08-28T06:49:24.152Z,3.65
2022-08-28T06:51:52.285Z,3.75
2022-08-28T06:54:23.230Z,3.78
2022-08-28T06:56:53.838Z,3.63
2022-08-28T06:59:21.693Z,3.47
2022-08-28T07:01:49.899Z,3.63
2022-08-28T07:04:18.045Z,3.42
2022-08-28T07:06:53.691Z,3.30
2022-08-28T07:09:22.620Z,3.35
2022-08-28T07:11:51.060Z,3.67
2022-08-28T07:14:20.305Z,3.17
2022-08-28T07:16:48.586Z,2.72
2022-08-28T07:19:17.015Z,2.92
2022-08-28T07:21:46.588Z,3.75
2022-08-28T07:24:16.314Z,3.08
2022-08-28T07:26:45.401Z,2.67
2022-08-28T07:29:14.666Z,3.20
2022-08-28T07:31:46.524Z,2.80
2022-08-28T07:34:16.797Z,2.90
2022-08-28T07:36:45.474Z,2.88
2022-08-28T07:39:14.956Z,3.20
2022-08-28T07:41:44.086Z,3.08
2022-08-28T07:44:31.348Z,2.38
2022-08-28T07:47:04.315Z,3.22
2022-08-28T07:49:33.681Z,3.03
2022-08-28T07:52:02.346Z,2.53
2022-08-28T07:54:30.153Z,2.88
2022-08-28T07:56:57.987Z,2.45
2022-08-28T07:59:26.073Z,3.00
2022-08-28T08:01:53.986Z,2.53
2022-08-28T08:04:25.477Z,2.60
2022-08-28T08:06:57.789Z,2.90
2022-08-28T08:09:27.519Z,3.97
2022-08-28T08:11:56.682Z,3.17
2022-08-28T08:14:25.624Z,2.47
2022-08-28T08:16:54.045Z,2.75
2022-08-28T08:19:23.354Z,2.50
2022-08-28T08:21:53.236Z,2.60
2022-08-28T08:24:26.607Z,2.35
2022-08-28T08:27:00.190Z,2.47
2022-08-28T08:29:31.617Z,2.70
2022-08-28T08:32:04.903Z,3.00
2022-08-28T08:34:36.794Z,3.17
2022-08-28T08:37:05.757Z,2.50
2022-08-28T08:39:33.906Z,2.58
2022-08-28T08:42:04.111Z,2.53
2022-08-28T08:44:35.312Z,2.63
2022-08-28T08:47:14.518Z,2.65
2022-08-28T08:49:51.319Z,2.25
2022-08-28T08:52:31.269Z,2.30
2022-08-28T08:55:24.825Z,2.47
2022-08-28T08:57:58.573Z,2.38
2022-08-28T09:00:28.127Z,2.47
2022-08-28T09:03:04.168Z,2.53
2022-08-28T09:05:42.610Z,2.35
2022-08-28T09:08:20.804Z,3.10
2022-08-28T09:11:01.087Z,2.83
2022-08-28T09:13:38.546Z,3.35
2022-08-28T09:16:17.864Z,2.45
2022-08-28T09:18:48.321Z,3.03
2022-08-28T09:21:29.411Z,2.42
2022-08-28T09:24:02.099Z,3.08
2022-08-28T09:26:34.263Z,2.88
2022-08-28T09:29:05.646Z,2.67
2022-08-28T09:31:37.166Z,2.60
2022-08-28T09:34:21.365Z,2.30
2022-08-28T09:36:51.044Z,2.38
2022-08-28T09:39:21.182Z,2.75
2022-08-28T09:42:35.189Z,2.45
2022-08-28T09:45:14.600Z,2.40
2022-08-28T09:47:51.470Z,2.38
2022-08-28T09:50:35.270Z,2.25
2022-08-28T09:53:20.831Z,2.10
2022-08-28T09:55:59.106Z,2.80
2022-08-28T09:58:33.905Z,2.50
2022-08-28T10:01:10.030Z,2.38
2022-08-28T10:03:43.444Z,2.75
2022-08-28T10:06:20.118Z,2.60
2022-08-28T10:09:00.720Z,2.90
2022-08-28T10:11:34.243Z,2.42
2022-08-28T10:14:12.087Z,1.58
2022-08-28T10:16:52.471Z,1.85
2022-08-28T10:19:32.045Z,2.92
2022-08-28T10:22:12.035Z,2.40
2022-08-28T10:25:05.264Z,1.98
2022-08-28T10:27:49.178Z,2.00
2022-08-28T10:30:20.782Z,1.85
2022-08-28T10:33:01.216Z,2.58
2022-08-28T10:35:39.912Z,2.20
2022-08-28T10:38:12.301Z,1.80
2022-08-28T10:40:56.906Z,2.60
2022-08-28T10:43:31.514Z,2.47
2022-08-28T10:46:05.012Z,1.95
2022-08-28T10:48:39.654Z,2.72
2022-08-28T10:51:13.474Z,2.55
2022-08-28T10:53:45.960Z,4.55
2022-08-28T10:56:18.961Z,2.70
2022-08-28T10:58:50.298Z,1.70
2022-08-28T11:01:27.239Z,2.00
2022-08-28T11:03:57.099Z,3.42
2022-08-28T11:06:31.512Z,2.92
2022-08-28T11:09:21.811Z,2.25
2022-08-28T11:11:52.990Z,2.75
2022-08-28T11:14:28.277Z,2.70
2022-08-28T11:19:55.395Z,3.20
2022-08-28T11:22:26.754Z,2.20
2022-08-28T11:25:06.433Z,2.15
2022-08-28T11:27:39.692Z,1.88
2022-08-28T11:30:35.557Z,2.10
2022-08-28T11:33:08.419Z,2.05
2022-08-28T11:35:49.533Z,2.13
2022-08-28T11:38:54.458Z,2.97
2022-08-28T11:41:26.517Z,2.08
2022-08-28T11:44:25.492Z,2.50
2022-08-28T11:46:55.381Z,1.88
2022-08-28T11:49:45.507Z,1.90
2022-08-28T11:52:37.809Z,1.80
2022-08-28T11:55:20.264Z,2.67
2022-08-28T12:00:48.782Z,2.17
2022-08-28T12:03:25.278Z,2.22
2022-08-28T12:05:56.388Z,2.55
2022-08-28T12:09:10.621Z,2.78
2022-08-28T12:12:02.223Z,1.60
2022-08-28T12:14:59.420Z,3.10
2022-08-28T12:17:48.913Z,1.92
2022-08-28T12:20:58.571Z,3.28
2022-08-28T12:23:42.735Z,1.90
2022-08-28T12:26:20.634Z,1.63
2022-08-28T12:28:51.747Z,2.30
2022-08-28T12:32:04.245Z,1.70
2022-08-28T12:34:51.176Z,1.60
2022-08-28T12:37:30.469Z,1.92
2022-08-28T12:40:17.983Z,1.58
2022-08-28T12:42:55.784Z,1.42
2022-08-28T12:45:28.224Z,1.42
2022-08-28T12:48:00.172Z,1.33
2022-08-28T12:50:36.458Z,2.03
2022-08-28T12:53:07.348Z,1.83
2022-08-28T12:55:35.456Z,1.67
2022-08-28T12:58:03.276Z,3.13
2022-08-28T13:00:37.267Z,1.83
2022-08-28T13:03:08.726Z,1.55
2022-08-28T13:05:41.108Z,1.48
2022-08-28T13:08:12.200Z,2.58
2022-08-28T13:10:43.974Z,1.58
2022-08-28T13:13:20.608Z,4.78
2022-08-28T13:15:57.970Z,1.60
2022-08-28T13:18:51.513Z,1.48
2022-08-28T13:21:37.366Z,1.15
2022-08-28T13:24:28.761Z,1.60
2022-08-28T13:27:06.682Z,1.20
2022-08-28T13:29:35.310Z,1.92
2022-08-28T13:32:05.640Z,2.20
2022-08-28T13:34:35.282Z,1.70
2022-08-28T13:37:14.645Z,2.08
2022-08-28T13:39:48.155Z,1.60
2022-08-28T13:42:18.445Z,1.35
2022-08-28T13:44:49.073Z,1.27
2022-08-28T13:47:17.802Z,1.40
2022-08-28T13:49:46.536Z,1.40
2022-08-28T13:52:15.852Z,1.70
2022-08-28T13:54:45.266Z,1.20
2022-08-28T13:57:14.552Z,1.80
2022-08-28T13:59:42.750Z,1.48
2022-08-28T14:02:32.373Z,1.38
2022-08-28T14:05:00.408Z,1.17
2022-08-28T14:07:30.149Z,1.00
2022-08-28T14:09:58.099Z,1.30
2022-08-28T14:12:32.609Z,1.67
2022-08-28T14:15:01.864Z,1.98
2022-08-28T14:17:30.006Z,1.58
2022-08-28T14:19:59.720Z,1.38
2022-08-28T14:22:29.799Z,1.23
2022-08-28T14:24:57.742Z,1.30
2022-08-28T14:27:25.578Z,1.40
2022-08-28T14:29:54.090Z,1.40
2022-08-28T14:32:22.303Z,1.30
2022-08-28T14:34:50.629Z,1.35
2022-08-28T14:37:19.293Z,1.70
2022-08-28T14:39:50.750Z,1.42
2022-08-28T14:42:19.382Z,1.08
2022-08-28T14:44:47.421Z,1.33
2022-08-28T14:47:15.276Z,1.45
2022-08-28T14:49:43.401Z,1.45
2022-08-28T14:52:11.603Z,1.42
2022-08-28T14:54:41.012Z,1.35
2022-08-28T14:57:11.821Z,1.42
2022-08-28T14:59:39.774Z,1.23
2022-08-28T15:02:07.899Z,1.20
2022-08-28T15:04:37.841Z,1.23
2022-08-28T15:07:08.493Z,1.20
2022-08-28T15:09:38.979Z,1.45
2022-08-28T15:12:07.523Z,1.20
2022-08-28T15:14:37.081Z,1.98
2022-08-28T15:17:05.157Z,1.10
2022-08-28T15:19:33.021Z,1.15
2022-08-28T15:22:02.181Z,1.17
2022-08-28T15:24:34.243Z,1.35
2022-08-28T15:27:02.815Z,1.38
2022-08-28T15:29:31.157Z,1.30
2022-08-28T15:32:01.267Z,1.25
2022-08-28T15:34:29.997Z,1.45
2022-08-28T15:36:58.735Z,1.10
2022-08-28T15:39:48.221Z,1.40
2022-08-28T15:42:16.595Z,1.02
2022-08-28T15:44:44.485Z,1.55
2022-08-28T15:47:14.933Z,1.20
2022-08-28T15:49:49.690Z,1.60
2022-08-28T15:52:20.865Z,1.30
2022-08-28T15:54:49.586Z,1.35
2022-08-28T15:57:17.586Z,1.30
2022-08-28T15:59:49.395Z,1.50
2022-08-28T16:02:20.518Z,1.73
2022-08-28T16:04:49.104Z,0.98
2022-08-28T16:07:17.549Z,1.23
2022-08-28T16:09:45.381Z,1.10
2022-08-28T16:12:13.473Z,1.52
2022-08-28T16:14:41.507Z,2.22
2022-08-28T16:17:11.155Z,1.10
2022-08-28T16:19:41.556Z,1.50
2022-08-28T16:22:09.845Z,1.10
2022-08-28T16:24:38.235Z,1.30
2022-08-28T16:27:08.727Z,1.13
2022-08-28T16:29:54.308Z,1.13
2022-08-28T16:32:23.026Z,1.52
2022-08-28T16:34:52.603Z,1.10
2022-08-28T16:37:25.409Z,1.30
2022-08-28T16:39:54.997Z,1.08
2022-08-28T16:42:22.971Z,1.55
2022-08-28T16:44:50.862Z,1.00
2022-08-28T16:47:18.692Z,1.40
2022-08-28T16:49:46.523Z,1.17
2022-08-28T16:52:15.997Z,0.70
2022-08-28T16:54:48.328Z,1.17
2022-08-28T16:57:16.472Z,0.75
2022-08-28T16:59:44.362Z,1.08
2022-08-28T17:02:13.280Z,0.70
2022-08-28T17:04:41.766Z,1.23
2022-08-28T17:07:09.585Z,1.02
2022-08-28T17:09:38.758Z,1.10
2022-08-28T17:12:07.005Z,1.40
2022-08-28T17:14:35.417Z,0.95
2022-08-28T17:17:03.203Z,1.27
2022-08-28T17:19:31.096Z,1.30
2022-08-28T17:22:16.497Z,1.40
2022-08-28T17:24:46.312Z,1.20
2022-08-28T17:27:16.771Z,1.05
2022-08-28T17:29:50.642Z,0.82
2022-08-28T17:32:18.871Z,1.08
2022-08-28T17:34:46.836Z,0.82
2022-08-28T17:37:14.793Z,1.13
2022-08-28T17:39:43.336Z,1.00
2022-08-28T17:42:12.459Z,1.33
2022-08-28T17:44:40.364Z,2.47
2022-08-28T17:47:08.270Z,2.88
2022-08-28T17:49:36.160Z,2.30
2022-08-28T17:52:04.666Z,0.90
2022-08-28T17:54:33.028Z,1.27
2022-08-28T17:57:02.556Z,1.17
2022-08-28T17:59:33.045Z,1.25
2022-08-28T18:02:01.087Z,0.90
2022-08-28T18:04:29.205Z,0.88
2022-08-28T18:06:57.040Z,0.90
2022-08-28T18:09:25.279Z,1.13
2022-08-28T18:11:53.438Z,0.98
2022-08-28T18:14:22.101Z,0.90
2022-08-28T18:16:54.716Z,0.82
2022-08-28T18:19:23.923Z,1.10
2022-08-28T18:21:51.956Z,1.00
2022-08-28T18:24:20.249Z,1.20
2022-08-28T18:26:48.399Z,1.08
2022-08-28T18:29:16.279Z,1.20
2022-08-28T18:31:44.316Z,1.55
2022-08-28T18:34:13.573Z,1.30
2022-08-28T18:36:42.131Z,1.20
2022-08-28T18:39:10.779Z,1.05
2022-08-28T18:41:44.426Z,0.85
2022-08-28T18:44:13.721Z,1.00
2022-08-28T18:46:41.703Z,1.23
2022-08-28T18:49:09.559Z,1.35
2022-08-28T18:51:38.867Z,1.30
2022-08-28T18:54:06.747Z,1.02
2022-08-28T18:56:34.938Z,1.00
2022-08-28T18:59:04.256Z,1.30
2022-08-28T19:01:32.284Z,1.10
2022-08-28T19:04:00.215Z,1.17
2022-08-28T19:06:28.133Z,1.40
2022-08-28T19:08:57.677Z,1.25
2022-08-28T19:11:25.481Z,0.90
2022-08-28T19:13:53.583Z,3.83
2022-08-28T19:16:21.573Z,5.30
2022-08-28T19:18:51.473Z,5.20
2022-08-28T19:21:20.903Z,2.72
2022-08-28T19:23:55.345Z,1.77
2022-08-28T19:26:26.230Z,1.20
2022-08-28T19:28:55.288Z,1.30
2022-08-28T19:31:24.150Z,1.67
2022-08-28T19:33:52.040Z,1.23
2022-08-28T19:36:20.765Z,1.10
2022-08-28T19:38:48.702Z,0.75
2022-08-28T19:41:16.479Z,1.15
2022-08-28T19:43:45.945Z,1.20
2022-08-28T19:46:19.883Z,1.20
2022-08-28T19:48:48.823Z,1.40
2022-08-28T19:51:22.854Z,2.55
2022-08-28T19:53:58.715Z,1.05
2022-08-28T19:56:28.032Z,1.60
2022-08-28T19:58:59.540Z,1.65
2022-08-28T20:01:29.734Z,1.38
2022-08-28T20:03:58.407Z,1.33
2022-08-28T20:06:26.813Z,1.52
2022-08-28T20:08:54.662Z,2.00
2022-08-28T20:11:30.811Z,1.40
2022-08-28T20:14:04.651Z,1.30
2022-08-28T20:16:35.176Z,1.38
2022-08-28T20:19:04.196Z,1.50
2022-08-28T20:21:37.313Z,1.50
2022-08-28T20:24:07.600Z,1.27
2022-08-28T20:26:36.084Z,1.63
2022-08-28T20:29:07.199Z,1.30
2022-08-28T20:31:36.038Z,1.13
2022-08-28T20:34:03.941Z,1.38
2022-08-28T20:36:31.768Z,1.30
2022-08-28T20:39:03.917Z,1.50
2022-08-28T20:41:31.749Z,1.40
2022-08-28T20:44:01.183Z,1.45
2022-08-28T20:46:32.958Z,1.42
2022-08-28T20:49:03.529Z,1.48
2022-08-28T20:52:00.876Z,1.80
2022-08-28T20:54:32.693Z,1.52
2022-08-28T20:57:03.711Z,1.42
2022-08-28T20:59:34.588Z,1.30
2022-08-28T21:02:11.182Z,1.60
2022-08-28T21:04:40.705Z,1.40
2022-08-28T21:07:08.998Z,1.58
2022-08-28T21:10:04.123Z,2.13
2022-08-28T21:12:25.313Z,1.40
2022-08-28T21:14:53.370Z,1.90
2022-08-28T21:17:29.412Z,1.58
2022-08-28T21:19:59.382Z,1.55
2022-08-28T21:22:27.205Z,1.95
2022-08-28T21:24:55.219Z,1.50
2022-08-28T21:27:23.081Z,1.90
2022-08-28T21:29:51.299Z,1.77
2022-08-28T21:32:19.097Z,1.70
2022-08-28T21:34:48.444Z,1.60
2022-08-28T21:37:16.429Z,1.50
2022-08-28T21:39:44.298Z,1.58
2022-08-28T21:42:12.505Z,1.55
2022-08-28T21:44:40.841Z,1.73
2022-08-28T21:47:16.443Z,1.38
2022-08-28T21:49:44.391Z,1.38
2022-08-28T21:52:13.678Z,1.63
2022-08-28T21:54:41.477Z,1.70
2022-08-28T21:57:09.312Z,1.75
2022-08-28T21:59:38.227Z,1.45
2022-08-28T22:02:06.428Z,1.55
2022-08-28T22:04:34.744Z,1.50
2022-08-28T22:07:03.011Z,1.58
2022-08-28T22:09:32.224Z,1.40
2022-08-28T22:12:01.275Z,1.50
2022-08-28T22:14:29.128Z,2.25
2022-08-28T22:16:57.208Z,1.45
2022-08-28T22:19:25.300Z,1.98
2022-08-28T22:22:10.745Z,1.75
2022-08-28T22:24:40.274Z,1.95
2022-08-28T22:27:08.100Z,1.48
2022-08-28T22:29:37.308Z,2.00
2022-08-28T22:32:05.243Z,1.55
2022-08-28T22:34:36.783Z,1.30
2022-08-28T22:37:04.955Z,1.70
2022-08-28T22:39:32.808Z,1.58
2022-08-28T22:42:02.406Z,1.55
2022-08-28T22:44:30.290Z,1.70
2022-08-28T22:46:58.603Z,1.55
2022-08-28T22:49:26.482Z,1.63
2022-08-28T22:51:54.292Z,1.42
2022-08-28T22:54:22.173Z,1.50
2022-08-28T22:56:49.990Z,1.65
2022-08-28T22:59:19.697Z,1.90
2022-08-28T23:01:47.658Z,1.50
2022-08-28T23:04:16.314Z,1.83
2022-08-28T23:06:44.565Z,1.50
2022-08-28T23:09:12.394Z,1.83
2022-08-28T23:11:40.219Z,1.65
2022-08-28T23:14:08.156Z,1.67
2022-08-28T23:16:38.725Z,2.10
2022-08-28T23:19:09.019Z,1.88
2022-08-28T23:21:40.773Z,2.08
2022-08-28T23:24:10.806Z,1.52
2022-08-28T23:26:38.615Z,2.08
2022-08-28T23:29:06.672Z,1.58
2022-08-28T23:31:34.603Z,1.77
2022-08-28T23:34:04.978Z,2.33
2022-08-28T23:36:35.366Z,1.60
2022-08-28T23:39:04.277Z,1.48
2022-08-28T23:41:32.165Z,2.03
2022-08-28T23:44:01.613Z,1.83
2022-08-28T23:46:31.091Z,1.48
2022-08-28T23:48:58.951Z,1.90
2022-08-28T23:51:28.455Z,1.58
2022-08-28T23:53:56.332Z,1.90
2022-08-28T23:56:28.169Z,1.90
2022-08-28T23:58:56.485Z,1.75
